Belen, NM (87002)

1:39 AM MDT on October 26, 2014 (GMT -0600)
Valencia Y | Change Station
CLOSE
Current Station
Personal Weather Station
Location: Los Lunas, NM
Elevation: 4852 ft
Nearby Weather Stations

Elev 4852 ft 34.81 °N, 106.70 °W | Updated 11 seconds ago

Clear
Clear
47.3 °F
Feels Like 47 °F
N
0.0
Wind Variable Wind from NNE
Gusts 0.0 mph

Today
High -- | Low -- °F
--% Chance of Precip.
Yesterday
High -- | Low -- °F
Precip. -- in
7:21 AM 6:19 PM
Waxing Crescent, 6% visible
Pressure 30.00 in
Visibility 10.0 miles
Clouds Few 13000 ft
Few 20000 ft
Windchill 47 °F
Dew Point 41 °F
Humidity 73%
Rainfall 0.00 in
Snow Depth Not available.
UV 0 out of 12
Pollen 3.60 out of 12
Air Quality Not available.
Flu Activity Sporadic
METAR KABQ 260652Z 14008KT 10SM FEW130 FEW200 13/02 A3019 RMK AO2 SLP159 T01330022 402560100

More Conditions Fewer Conditions

Pressure 30.00 in
Visibility 10.0 miles
Clouds Few 13000 ft
Few 20000 ft
Windchill 47 °F
Dew Point 41 °F
Humidity 73%
Rainfall 0.00 in
Snow Depth Not available.
UV 0 out of 12
Pollen 3.60 out of 12
Air Quality Not available.
Flu Activity Sporadic
METAR KABQ 260652Z 14008KT 10SM FEW130 FEW200 13/02 A3019 RMK AO2 SLP159 T01330022 402560100

More Conditions Fewer Conditions

10-Day Weather Forecast

Almanac

Astronomy

Oct. 26, 2014 Rise Set
Actual Time 7:21 AM MDT 6:19 PM MDT
Civil Twilight 6:55 AM MDT 6:44 PM MDT
Nautical Twilight 6:26 AM MDT 7:14 PM MDT
Astronomical Twilight 5:57 AM MDT 7:43 PM MDT
Moon 9:58 AM MDT 8:37 PM MDT
Length of Visible Light 11h 48m
Length of Day
10h 57m
Tomorrow will be 1m 57s shorter.
Waxing Crescent, 6% of the Moon is Illuminated
Today
Waxing Crescent
Oct 30
First Quarter
Nov 6
Full
Nov 14
Last Quarter
Nov 22
New

Today's Extremes

State Highs State Lows

Community

WunderPhotos

Upload Photos

1,765,115 photos uploaded!

Nearby

Snow Depth

Station Depth Elevation
Quemazon 1 in 9500 ft
Santa Fe 0 in 11445 ft
Senorita Divide #2 0 in 8600 ft
Sierra Blanca 0 in 10280 ft
Elk Cabin 0 in 8210 ft

Earthquake Activity

City Distance Mag. Time & Date
No recent earthquake activity has been reported nearby.
Minimum magnitude displayed is 2.5.

Coastal Water Temperatures

Place Temperature
No Stations Reporting

Nearby Weather Stations